sensor_id;sensor_type;location;lat;lon;timestamp;temperature;humidity
37560;DHT22;23398;50.928;7.084;2023-08-17T00:01:25;22.80;99.90
37560;DHT22;23398;50.928;7.084;2023-08-17T00:03:50;22.80;99.90
37560;DHT22;23398;50.928;7.084;2023-08-17T00:06:16;22.80;99.90
37560;DHT22;23398;50.928;7.084;2023-08-17T00:08:42;22.70;99.90
37560;DHT22;23398;50.928;7.084;2023-08-17T00:11:08;22.70;99.90
37560;DHT22;23398;50.928;7.084;2023-08-17T00:13:34;22.70;99.90
37560;DHT22;23398;50.928;7.084;2023-08-17T00:15:59;22.70;99.90
37560;DHT22;23398;50.928;7.084;2023-08-17T00:18:25;22.60;99.90
37560;DHT22;23398;50.928;7.084;2023-08-17T00:20:52;22.60;99.90
37560;DHT22;23398;50.928;7.084;2023-08-17T00:23:17;22.60;99.90
37560;DHT22;23398;50.928;7.084;2023-08-17T00:25:43;22.60;99.90
37560;DHT22;23398;50.928;7.084;2023-08-17T00:28:09;22.60;99.90
37560;DHT22;23398;50.928;7.084;2023-08-17T00:30:34;22.60;99.90
37560;DHT22;23398;50.928;7.084;2023-08-17T00:33:02;22.50;99.90
37560;DHT22;23398;50.928;7.084;2023-08-17T00:35:28;22.60;99.90
37560;DHT22;23398;50.928;7.084;2023-08-17T00:37:53;22.60;99.90
37560;DHT22;23398;50.928;7.084;2023-08-17T00:40:19;22.60;99.90
37560;DHT22;23398;50.928;7.084;2023-08-17T00:42:45;22.60;99.90
37560;DHT22;23398;50.928;7.084;2023-08-17T00:45:10;22.60;99.90
37560;DHT22;23398;50.928;7.084;2023-08-17T00:47:36;22.60;99.90
37560;DHT22;23398;50.928;7.084;2023-08-17T00:50:02;22.60;99.90
37560;DHT22;23398;50.928;7.084;2023-08-17T00:52:28;22.60;99.90
37560;DHT22;23398;50.928;7.084;2023-08-17T00:54:57;22.60;99.90
37560;DHT22;23398;50.928;7.084;2023-08-17T00:57:23;22.60;99.90
37560;DHT22;23398;50.928;7.084;2023-08-17T00:59:51;22.60;99.90
37560;DHT22;23398;50.928;7.084;2023-08-17T01:02:17;22.60;99.90
37560;DHT22;23398;50.928;7.084;2023-08-17T01:04:43;22.50;99.90
37560;DHT22;23398;50.928;7.084;2023-08-17T01:07:09;22.50;99.90
37560;DHT22;23398;50.928;7.084;2023-08-17T01:09:35;22.50;99.90
37560;DHT22;23398;50.928;7.084;2023-08-17T01:17:19;22.40;99.90
37560;DHT22;23398;50.928;7.084;2023-08-17T01:19:47;22.40;99.90
37560;DHT22;23398;50.928;7.084;2023-08-17T01:22:15;22.40;99.90
37560;DHT22;23398;50.928;7.084;2023-08-17T01:24:41;22.40;99.90
37560;DHT22;23398;50.928;7.084;2023-08-17T01:27:07;22.40;99.90
37560;DHT22;23398;50.928;7.084;2023-08-17T01:29:33;22.40;99.90
37560;DHT22;23398;50.928;7.084;2023-08-17T01:34:32;22.50;99.90
37560;DHT22;23398;50.928;7.084;2023-08-17T01:37:00;22.50;99.90
37560;DHT22;23398;50.928;7.084;2023-08-17T01:39:37;22.50;99.90
37560;DHT22;23398;50.928;7.084;2023-08-17T01:42:03;22.60;99.90
37560;DHT22;23398;50.928;7.084;2023-08-17T01:44:30;22.60;99.90
37560;DHT22;23398;50.928;7.084;2023-08-17T01:46:56;22.60;99.90
37560;DHT22;23398;50.928;7.084;2023-08-17T01:49:22;22.60;99.90
37560;DHT22;23398;50.928;7.084;2023-08-17T01:51:48;22.70;99.90
37560;DHT22;23398;50.928;7.084;2023-08-17T01:54:13;22.70;99.90
37560;DHT22;23398;50.928;7.084;2023-08-17T01:56:39;22.70;99.90
37560;DHT22;23398;50.928;7.084;2023-08-17T01:59:04;22.70;99.90
37560;DHT22;23398;50.928;7.084;2023-08-17T02:01:30;22.70;99.90
37560;DHT22;23398;50.928;7.084;2023-08-17T02:03:55;22.80;99.90
37560;DHT22;23398;50.928;7.084;2023-08-17T02:06:21;22.80;99.90
37560;DHT22;23398;50.928;7.084;2023-08-17T02:08:47;22.80;99.90
37560;DHT22;23398;50.928;7.084;2023-08-17T02:11:12;22.80;99.90
37560;DHT22;23398;50.928;7.084;2023-08-17T02:13:38;22.80;99.90
37560;DHT22;23398;50.928;7.084;2023-08-17T02:16:04;22.80;99.90
37560;DHT22;23398;50.928;7.084;2023-08-17T02:18:30;22.90;99.90
37560;DHT22;23398;50.928;7.084;2023-08-17T02:20:57;22.90;99.90
37560;DHT22;23398;50.928;7.084;2023-08-17T02:23:23;22.90;99.90
37560;DHT22;23398;50.928;7.084;2023-08-17T02:25:49;22.90;99.90
37560;DHT22;23398;50.928;7.084;2023-08-17T02:28:14;22.90;99.90
37560;DHT22;23398;50.928;7.084;2023-08-17T02:30:40;22.90;99.90
37560;DHT22;23398;50.928;7.084;2023-08-17T02:33:06;22.90;99.90
37560;DHT22;23398;50.928;7.084;2023-08-17T02:35:31;22.90;99.90
37560;DHT22;23398;50.928;7.084;2023-08-17T02:37:57;23.00;99.90
37560;DHT22;23398;50.928;7.084;2023-08-17T02:40:22;22.90;99.90
37560;DHT22;23398;50.928;7.084;2023-08-17T02:42:48;22.90;99.90
37560;DHT22;23398;50.928;7.084;2023-08-17T02:45:14;23.00;99.90
37560;DHT22;23398;50.928;7.084;2023-08-17T02:47:39;22.90;99.90
37560;DHT22;23398;50.928;7.084;2023-08-17T02:50:05;22.90;99.90
37560;DHT22;23398;50.928;7.084;2023-08-17T02:52:31;22.90;99.90
37560;DHT22;23398;50.928;7.084;2023-08-17T02:54:56;22.90;99.90
37560;DHT22;23398;50.928;7.084;2023-08-17T02:57:22;22.80;99.80
37560;DHT22;23398;50.928;7.084;2023-08-17T02:59:48;22.70;99.60
37560;DHT22;23398;50.928;7.084;2023-08-17T03:02:13;22.60;99.50
37560;DHT22;23398;50.928;7.084;2023-08-17T03:04:39;22.60;99.40
37560;DHT22;23398;50.928;7.084;2023-08-17T03:07:04;22.50;99.30
37560;DHT22;23398;50.928;7.084;2023-08-17T03:09:30;22.40;99.30
37560;DHT22;23398;50.928;7.084;2023-08-17T03:11:56;22.30;99.30
37560;DHT22;23398;50.928;7.084;2023-08-17T03:14:21;22.20;99.40
37560;DHT22;23398;50.928;7.084;2023-08-17T03:16:47;22.10;99.40
37560;DHT22;23398;50.928;7.084;2023-08-17T03:19:12;22.00;99.50
37560;DHT22;23398;50.928;7.084;2023-08-17T03:21:38;21.90;99.70
37560;DHT22;23398;50.928;7.084;2023-08-17T03:24:04;21.80;99.90
37560;DHT22;23398;50.928;7.084;2023-08-17T03:26:30;21.80;99.80
37560;DHT22;23398;50.928;7.084;2023-08-17T03:28:55;21.70;99.90
37560;DHT22;23398;50.928;7.084;2023-08-17T03:31:21;21.70;99.90
37560;DHT22;23398;50.928;7.084;2023-08-17T03:33:47;21.60;99.90
37560;DHT22;23398;50.928;7.084;2023-08-17T03:36:13;21.50;99.90
37560;DHT22;23398;50.928;7.084;2023-08-17T03:38:39;21.40;99.90
37560;DHT22;23398;50.928;7.084;2023-08-17T03:41:09;21.40;99.90
37560;DHT22;23398;50.928;7.084;2023-08-17T03:43:34;21.30;99.90
37560;DHT22;23398;50.928;7.084;2023-08-17T03:46:00;21.30;99.90
37560;DHT22;23398;50.928;7.084;2023-08-17T03:48:25;21.30;99.90
37560;DHT22;23398;50.928;7.084;2023-08-17T03:50:52;21.30;99.90
37560;DHT22;23398;50.928;7.084;2023-08-17T03:53:18;21.30;99.90
37560;DHT22;23398;50.928;7.084;2023-08-17T03:55:50;21.30;99.90
37560;DHT22;23398;50.928;7.084;2023-08-17T03:58:17;21.30;99.90
37560;DHT22;23398;50.928;7.084;2023-08-17T04:00:51;21.40;99.90
37560;DHT22;23398;50.928;7.084;2023-08-17T04:03:18;21.30;99.90
37560;DHT22;23398;50.928;7.084;2023-08-17T04:05:44;21.40;99.90
37560;DHT22;23398;50.928;7.084;2023-08-17T04:08:10;21.40;99.90
37560;DHT22;23398;50.928;7.084;2023-08-17T04:10:35;21.50;99.90
37560;DHT22;23398;50.928;7.084;2023-08-17T04:13:01;21.50;99.90
37560;DHT22;23398;50.928;7.084;2023-08-17T04:15:26;21.50;99.90
37560;DHT22;23398;50.928;7.084;2023-08-17T04:17:52;21.60;99.90
37560;DHT22;23398;50.928;7.084;2023-08-17T04:20:17;21.60;99.90
37560;DHT22;23398;50.928;7.084;2023-08-17T04:22:46;21.70;99.90
37560;DHT22;23398;50.928;7.084;2023-08-17T04:25:13;21.70;99.90
37560;DHT22;23398;50.928;7.084;2023-08-17T04:27:39;21.80;99.90
37560;DHT22;23398;50.928;7.084;2023-08-17T04:30:05;21.80;99.90
37560;DHT22;23398;50.928;7.084;2023-08-17T04:32:31;21.80;99.90
37560;DHT22;23398;50.928;7.084;2023-08-17T04:34:56;21.80;99.90
37560;DHT22;23398;50.928;7.084;2023-08-17T04:37:22;21.80;99.90
37560;DHT22;23398;50.928;7.084;2023-08-17T04:39:47;21.80;99.90
37560;DHT22;23398;50.928;7.084;2023-08-17T04:42:14;21.90;99.90
37560;DHT22;23398;50.928;7.084;2023-08-17T04:44:40;21.90;99.90
37560;DHT22;23398;50.928;7.084;2023-08-17T04:47:06;21.90;99.90
37560;DHT22;23398;50.928;7.084;2023-08-17T04:49:31;21.90;99.90
37560;DHT22;23398;50.928;7.084;2023-08-17T04:51:57;21.90;99.90
37560;DHT22;23398;50.928;7.084;2023-08-17T04:54:22;21.90;99.90
37560;DHT22;23398;50.928;7.084;2023-08-17T04:56:48;21.90;99.90
37560;DHT22;23398;50.928;7.084;2023-08-17T04:59:14;22.00;99.90
37560;DHT22;23398;50.928;7.084;2023-08-17T05:01:39;21.90;99.90
37560;DHT22;23398;50.928;7.084;2023-08-17T05:04:05;21.90;99.90
37560;DHT22;23398;50.928;7.084;2023-08-17T05:06:31;22.00;99.90
37560;DHT22;23398;50.928;7.084;2023-08-17T05:08:57;22.00;99.90
37560;DHT22;23398;50.928;7.084;2023-08-17T05:11:23;22.00;99.90
37560;DHT22;23398;50.928;7.084;2023-08-17T05:13:48;22.00;99.90
37560;DHT22;23398;50.928;7.084;2023-08-17T05:16:14;22.00;99.90
37560;DHT22;23398;50.928;7.084;2023-08-17T05:18:40;22.10;99.90
37560;DHT22;23398;50.928;7.084;2023-08-17T05:21:05;22.10;99.90
37560;DHT22;23398;50.928;7.084;2023-08-17T05:23:31;22.10;99.90
37560;DHT22;23398;50.928;7.084;2023-08-17T05:25:57;22.10;99.90
37560;DHT22;23398;50.928;7.084;2023-08-17T05:28:23;22.20;99.90
37560;DHT22;23398;50.928;7.084;2023-08-17T05:30:48;22.40;99.90
37560;DHT22;23398;50.928;7.084;2023-08-17T05:33:14;22.20;99.90
37560;DHT22;23398;50.928;7.084;2023-08-17T05:35:40;22.30;99.90
37560;DHT22;23398;50.928;7.084;2023-08-17T05:38:07;22.30;99.90
37560;DHT22;23398;50.928;7.084;2023-08-17T05:40:33;22.30;99.90
37560;DHT22;23398;50.928;7.084;2023-08-17T05:42:59;22.30;99.90
37560;DHT22;23398;50.928;7.084;2023-08-17T05:45:25;22.40;99.90
37560;DHT22;23398;50.928;7.084;2023-08-17T05:47:51;22.40;99.80
37560;DHT22;23398;50.928;7.084;2023-08-17T05:50:17;22.40;99.80
37560;DHT22;23398;50.928;7.084;2023-08-17T05:52:42;22.40;99.70
37560;DHT22;23398;50.928;7.084;2023-08-17T05:55:08;22.50;99.90
37560;DHT22;23398;50.928;7.084;2023-08-17T05:57:34;22.50;99.80
37560;DHT22;23398;50.928;7.084;2023-08-17T05:59:59;22.50;99.80
37560;DHT22;23398;50.928;7.084;2023-08-17T06:02:25;22.50;99.70
37560;DHT22;23398;50.928;7.084;2023-08-17T06:04:50;22.60;99.80
37560;DHT22;23398;50.928;7.084;2023-08-17T06:07:16;22.60;99.70
37560;DHT22;23398;50.928;7.084;2023-08-17T06:09:42;22.70;99.90
37560;DHT22;23398;50.928;7.084;2023-08-17T06:12:07;22.70;99.90
37560;DHT22;23398;50.928;7.084;2023-08-17T06:14:33;22.70;99.90
37560;DHT22;23398;50.928;7.084;2023-08-17T06:16:59;22.80;99.60
37560;DHT22;23398;50.928;7.084;2023-08-17T06:19:25;22.80;99.40
37560;DHT22;23398;50.928;7.084;2023-08-17T06:21:51;22.90;99.50
37560;DHT22;23398;50.928;7.084;2023-08-17T06:24:17;23.00;99.50
37560;DHT22;23398;50.928;7.084;2023-08-17T06:26:44;23.10;99.60
37560;DHT22;23398;50.928;7.084;2023-08-17T06:29:10;23.10;99.20
37560;DHT22;23398;50.928;7.084;2023-08-17T06:31:36;23.20;99.00
37560;DHT22;23398;50.928;7.084;2023-08-17T06:34:02;23.30;99.00
37560;DHT22;23398;50.928;7.084;2023-08-17T06:36:31;23.40;98.80
37560;DHT22;23398;50.928;7.084;2023-08-17T06:38:57;23.50;98.70
37560;DHT22;23398;50.928;7.084;2023-08-17T06:41:22;23.60;98.70
37560;DHT22;23398;50.928;7.084;2023-08-17T06:43:50;23.70;98.60
37560;DHT22;23398;50.928;7.084;2023-08-17T06:46:16;23.80;98.50
37560;DHT22;23398;50.928;7.084;2023-08-17T06:48:42;23.90;98.10
37560;DHT22;23398;50.928;7.084;2023-08-17T06:51:08;24.10;97.90
37560;DHT22;23398;50.928;7.084;2023-08-17T06:53:33;24.20;97.30
37560;DHT22;23398;50.928;7.084;2023-08-17T06:55:59;24.30;97.20
37560;DHT22;23398;50.928;7.084;2023-08-17T06:58:25;24.50;96.60
37560;DHT22;23398;50.928;7.084;2023-08-17T07:00:51;24.50;96.00
37560;DHT22;23398;50.928;7.084;2023-08-17T07:03:16;24.70;95.80
37560;DHT22;23398;50.928;7.084;2023-08-17T07:05:42;24.70;95.90
37560;DHT22;23398;50.928;7.084;2023-08-17T07:08:07;24.80;95.50
37560;DHT22;23398;50.928;7.084;2023-08-17T07:10:33;24.90;95.60
37560;DHT22;23398;50.928;7.084;2023-08-17T07:12:59;25.00;95.10
37560;DHT22;23398;50.928;7.084;2023-08-17T07:15:28;25.10;94.40
37560;DHT22;23398;50.928;7.084;2023-08-17T07:17:54;25.10;94.00
37560;DHT22;23398;50.928;7.084;2023-08-17T07:20:20;25.20;93.80
37560;DHT22;23398;50.928;7.084;2023-08-17T07:22:45;25.30;93.90
37560;DHT22;23398;50.928;7.084;2023-08-17T07:25:11;25.40;93.20
37560;DHT22;23398;50.928;7.084;2023-08-17T07:27:36;25.50;92.70
37560;DHT22;23398;50.928;7.084;2023-08-17T07:30:02;25.50;93.00
37560;DHT22;23398;50.928;7.084;2023-08-17T07:32:28;25.60;92.60
37560;DHT22;23398;50.928;7.084;2023-08-17T07:34:54;25.70;91.80
37560;DHT22;23398;50.928;7.084;2023-08-17T07:37:19;25.70;91.40
37560;DHT22;23398;50.928;7.084;2023-08-17T07:39:45;25.70;91.50
37560;DHT22;23398;50.928;7.084;2023-08-17T07:42:10;25.70;91.20
37560;DHT22;23398;50.928;7.084;2023-08-17T07:44:36;25.80;91.30
37560;DHT22;23398;50.928;7.084;2023-08-17T07:47:02;25.80;91.10
37560;DHT22;23398;50.928;7.084;2023-08-17T07:49:30;25.80;91.40
37560;DHT22;23398;50.928;7.084;2023-08-17T07:51:55;25.80;91.20
37560;DHT22;23398;50.928;7.084;2023-08-17T07:54:21;25.80;91.00
37560;DHT22;23398;50.928;7.084;2023-08-17T07:56:47;25.90;91.00
37560;DHT22;23398;50.928;7.084;2023-08-17T07:59:12;26.10;91.20
37560;DHT22;23398;50.928;7.084;2023-08-17T08:01:38;26.10;91.70
37560;DHT22;23398;50.928;7.084;2023-08-17T08:04:05;26.20;91.30
37560;DHT22;23398;50.928;7.084;2023-08-17T08:06:30;26.30;90.60
37560;DHT22;23398;50.928;7.084;2023-08-17T08:08:56;26.50;90.10
37560;DHT22;23398;50.928;7.084;2023-08-17T08:11:22;26.50;89.00
37560;DHT22;23398;50.928;7.084;2023-08-17T08:13:47;26.60;88.80
37560;DHT22;23398;50.928;7.084;2023-08-17T08:16:13;26.70;87.20
37560;DHT22;23398;50.928;7.084;2023-08-17T08:18:38;26.80;86.20
37560;DHT22;23398;50.928;7.084;2023-08-17T08:21:04;26.80;86.00
37560;DHT22;23398;50.928;7.084;2023-08-17T08:23:30;26.80;85.00
37560;DHT22;23398;50.928;7.084;2023-08-17T08:25:55;26.80;84.50
37560;DHT22;23398;50.928;7.084;2023-08-17T08:28:21;26.80;85.70
37560;DHT22;23398;50.928;7.084;2023-08-17T08:30:47;26.80;85.00
37560;DHT22;23398;50.928;7.084;2023-08-17T08:33:12;26.90;85.00
37560;DHT22;23398;50.928;7.084;2023-08-17T08:35:38;26.90;84.60
37560;DHT22;23398;50.928;7.084;2023-08-17T08:38:03;26.90;84.70
37560;DHT22;23398;50.928;7.084;2023-08-17T08:40:30;26.90;84.70
37560;DHT22;23398;50.928;7.084;2023-08-17T08:42:59;27.00;84.50
37560;DHT22;23398;50.928;7.084;2023-08-17T08:45:27;27.00;84.70
37560;DHT22;23398;50.928;7.084;2023-08-17T08:47:54;27.00;84.30
37560;DHT22;23398;50.928;7.084;2023-08-17T08:50:22;27.10;84.00
37560;DHT22;23398;50.928;7.084;2023-08-17T08:53:15;27.10;84.30
37560;DHT22;23398;50.928;7.084;2023-08-17T08:55:47;27.10;83.90
37560;DHT22;23398;50.928;7.084;2023-08-17T08:58:16;27.20;83.30
37560;DHT22;23398;50.928;7.084;2023-08-17T09:00:45;27.20;82.70
37560;DHT22;23398;50.928;7.084;2023-08-17T09:03:11;27.20;82.30
37560;DHT22;23398;50.928;7.084;2023-08-17T09:05:37;27.20;82.10
37560;DHT22;23398;50.928;7.084;2023-08-17T09:08:04;27.30;81.70
37560;DHT22;23398;50.928;7.084;2023-08-17T09:10:30;27.20;81.20
37560;DHT22;23398;50.928;7.084;2023-08-17T09:12:56;27.10;80.90
37560;DHT22;23398;50.928;7.084;2023-08-17T09:15:21;27.20;80.80
37560;DHT22;23398;50.928;7.084;2023-08-17T09:17:47;27.10;80.70
37560;DHT22;23398;50.928;7.084;2023-08-17T09:20:44;27.10;81.30
37560;DHT22;23398;50.928;7.084;2023-08-17T09:23:19;27.10;80.60
37560;DHT22;23398;50.928;7.084;2023-08-17T09:25:46;27.10;80.40
37560;DHT22;23398;50.928;7.084;2023-08-17T09:28:13;27.10;80.50
37560;DHT22;23398;50.928;7.084;2023-08-17T09:31:00;27.10;80.30
37560;DHT22;23398;50.928;7.084;2023-08-17T09:33:30;27.10;80.70
37560;DHT22;23398;50.928;7.084;2023-08-17T09:35:56;27.10;81.00
37560;DHT22;23398;50.928;7.084;2023-08-17T09:38:22;27.20;80.80
37560;DHT22;23398;50.928;7.084;2023-08-17T09:40:48;27.10;80.90
37560;DHT22;23398;50.928;7.084;2023-08-17T09:43:15;27.10;80.20
37560;DHT22;23398;50.928;7.084;2023-08-17T09:45:44;27.10;80.40
37560;DHT22;23398;50.928;7.084;2023-08-17T09:48:17;27.10;80.70
37560;DHT22;23398;50.928;7.084;2023-08-17T09:50:44;27.20;80.00
37560;DHT22;23398;50.928;7.084;2023-08-17T09:53:18;27.20;80.00
37560;DHT22;23398;50.928;7.084;2023-08-17T09:55:44;27.20;80.40
37560;DHT22;23398;50.928;7.084;2023-08-17T09:58:11;27.20;80.20
37560;DHT22;23398;50.928;7.084;2023-08-17T10:00:47;27.30;80.00
37560;DHT22;23398;50.928;7.084;2023-08-17T10:03:14;27.30;79.60
37560;DHT22;23398;50.928;7.084;2023-08-17T10:05:42;27.30;79.40
37560;DHT22;23398;50.928;7.084;2023-08-17T10:08:10;27.40;78.90
37560;DHT22;23398;50.928;7.084;2023-08-17T10:10:40;27.30;79.10
37560;DHT22;23398;50.928;7.084;2023-08-17T10:13:09;27.30;78.80
37560;DHT22;23398;50.928;7.084;2023-08-17T10:18:21;27.30;79.30
37560;DHT22;23398;50.928;7.084;2023-08-17T10:20:58;27.30;79.50
37560;DHT22;23398;50.928;7.084;2023-08-17T10:23:26;27.30;80.30
37560;DHT22;23398;50.928;7.084;2023-08-17T10:25:52;27.40;80.30
37560;DHT22;23398;50.928;7.084;2023-08-17T10:28:19;27.50;80.40
37560;DHT22;23398;50.928;7.084;2023-08-17T10:30:47;27.60;80.90
37560;DHT22;23398;50.928;7.084;2023-08-17T10:33:14;27.80;79.80
37560;DHT22;23398;50.928;7.084;2023-08-17T10:35:41;27.90;80.40
37560;DHT22;23398;50.928;7.084;2023-08-17T10:38:08;28.20;79.30
37560;DHT22;23398;50.928;7.084;2023-08-17T10:40:39;28.40;78.70
37560;DHT22;23398;50.928;7.084;2023-08-17T10:43:05;28.60;77.60
37560;DHT22;23398;50.928;7.084;2023-08-17T10:45:34;28.80;76.90
37560;DHT22;23398;50.928;7.084;2023-08-17T10:50:37;29.20;75.50
37560;DHT22;23398;50.928;7.084;2023-08-17T10:53:05;29.40;75.50
37560;DHT22;23398;50.928;7.084;2023-08-17T10:55:40;29.50;73.30
37560;DHT22;23398;50.928;7.084;2023-08-17T10:58:07;29.70;73.10
37560;DHT22;23398;50.928;7.084;2023-08-17T11:00:39;29.80;72.30
37560;DHT22;23398;50.928;7.084;2023-08-17T11:03:10;29.90;71.00
37560;DHT22;23398;50.928;7.084;2023-08-17T11:05:53;30.00;70.40
37560;DHT22;23398;50.928;7.084;2023-08-17T11:11:14;30.20;70.10
37560;DHT22;23398;50.928;7.084;2023-08-17T11:13:44;30.20;68.80
37560;DHT22;23398;50.928;7.084;2023-08-17T11:16:14;30.30;68.80
37560;DHT22;23398;50.928;7.084;2023-08-17T11:18:40;30.40;69.00
37560;DHT22;23398;50.928;7.084;2023-08-17T11:21:12;30.40;68.40
37560;DHT22;23398;50.928;7.084;2023-08-17T11:23:40;30.50;68.50
37560;DHT22;23398;50.928;7.084;2023-08-17T11:26:06;30.60;68.70
37560;DHT22;23398;50.928;7.084;2023-08-17T11:28:33;30.80;68.20
37560;DHT22;23398;50.928;7.084;2023-08-17T11:31:06;30.90;67.90
37560;DHT22;23398;50.928;7.084;2023-08-17T11:33:33;31.10;68.00
37560;DHT22;23398;50.928;7.084;2023-08-17T11:36:01;31.30;67.10
37560;DHT22;23398;50.928;7.084;2023-08-17T11:38:34;31.50;67.00
37560;DHT22;23398;50.928;7.084;2023-08-17T11:41:01;31.70;65.90
37560;DHT22;23398;50.928;7.084;2023-08-17T11:43:28;31.90;65.00
37560;DHT22;23398;50.928;7.084;2023-08-17T11:45:57;32.20;64.40
37560;DHT22;23398;50.928;7.084;2023-08-17T11:48:26;32.40;63.40
37560;DHT22;23398;50.928;7.084;2023-08-17T11:50:52;32.60;62.40
37560;DHT22;23398;50.928;7.084;2023-08-17T11:53:17;32.80;62.30
37560;DHT22;23398;50.928;7.084;2023-08-17T11:55:43;32.90;62.20
37560;DHT22;23398;50.928;7.084;2023-08-17T11:58:09;33.10;61.00
37560;DHT22;23398;50.928;7.084;2023-08-17T12:00:44;33.30;60.90
37560;DHT22;23398;50.928;7.084;2023-08-17T12:03:18;33.40;59.80
37560;DHT22;23398;50.928;7.084;2023-08-17T12:05:44;33.50;59.00
37560;DHT22;23398;50.928;7.084;2023-08-17T12:08:12;33.50;58.40
37560;DHT22;23398;50.928;7.084;2023-08-17T12:10:39;33.50;58.80
37560;DHT22;23398;50.928;7.084;2023-08-17T12:13:05;33.60;58.90
37560;DHT22;23398;50.928;7.084;2023-08-17T12:15:34;33.70;59.70
37560;DHT22;23398;50.928;7.084;2023-08-17T12:18:02;33.70;57.90
37560;DHT22;23398;50.928;7.084;2023-08-17T12:20:28;33.90;58.20
37560;DHT22;23398;50.928;7.084;2023-08-17T12:22:57;34.00;57.00
37560;DHT22;23398;50.928;7.084;2023-08-17T12:25:24;34.00;56.50
37560;DHT22;23398;50.928;7.084;2023-08-17T12:27:50;34.10;56.30
37560;DHT22;23398;50.928;7.084;2023-08-17T12:30:30;34.10;55.90
37560;DHT22;23398;50.928;7.084;2023-08-17T12:32:58;34.10;56.60
37560;DHT22;23398;50.928;7.084;2023-08-17T12:35:24;34.20;56.60
37560;DHT22;23398;50.928;7.084;2023-08-17T12:37:53;34.30;56.80
37560;DHT22;23398;50.928;7.084;2023-08-17T12:40:19;34.20;55.30
37560;DHT22;23398;50.928;7.084;2023-08-17T12:42:45;34.20;55.90
37560;DHT22;23398;50.928;7.084;2023-08-17T12:45:11;34.30;55.20
37560;DHT22;23398;50.928;7.084;2023-08-17T12:47:36;34.20;55.20
37560;DHT22;23398;50.928;7.084;2023-08-17T12:50:05;34.20;54.70
37560;DHT22;23398;50.928;7.084;2023-08-17T12:52:30;34.30;55.30
37560;DHT22;23398;50.928;7.084;2023-08-17T12:54:56;34.40;55.60
37560;DHT22;23398;50.928;7.084;2023-08-17T12:57:22;34.40;55.20
37560;DHT22;23398;50.928;7.084;2023-08-17T12:59:48;34.40;55.60
37560;DHT22;23398;50.928;7.084;2023-08-17T13:02:13;34.40;55.00
37560;DHT22;23398;50.928;7.084;2023-08-17T13:04:40;34.40;54.40
37560;DHT22;23398;50.928;7.084;2023-08-17T13:07:05;34.40;54.90
37560;DHT22;23398;50.928;7.084;2023-08-17T13:09:31;34.30;54.80
37560;DHT22;23398;50.928;7.084;2023-08-17T13:11:56;34.30;55.70
37560;DHT22;23398;50.928;7.084;2023-08-17T13:14:22;34.10;55.80
37560;DHT22;23398;50.928;7.084;2023-08-17T13:16:50;33.90;55.40
37560;DHT22;23398;50.928;7.084;2023-08-17T13:19:16;33.80;55.50
37560;DHT22;23398;50.928;7.084;2023-08-17T13:21:41;33.60;55.80
37560;DHT22;23398;50.928;7.084;2023-08-17T13:24:07;33.50;55.80
37560;DHT22;23398;50.928;7.084;2023-08-17T13:26:33;33.40;56.50
37560;DHT22;23398;50.928;7.084;2023-08-17T13:28:58;33.30;56.40
37560;DHT22;23398;50.928;7.084;2023-08-17T13:31:24;33.30;56.70
37560;DHT22;23398;50.928;7.084;2023-08-17T13:33:49;33.20;56.30
37560;DHT22;23398;50.928;7.084;2023-08-17T13:36:15;33.10;56.50
37560;DHT22;23398;50.928;7.084;2023-08-17T13:38:40;33.10;56.40
37560;DHT22;23398;50.928;7.084;2023-08-17T13:41:06;33.10;56.20
37560;DHT22;23398;50.928;7.084;2023-08-17T13:43:32;33.10;57.00
37560;DHT22;23398;50.928;7.084;2023-08-17T13:45:57;33.00;56.80
37560;DHT22;23398;50.928;7.084;2023-08-17T13:48:23;33.00;56.10
37560;DHT22;23398;50.928;7.084;2023-08-17T13:50:48;32.90;56.30
37560;DHT22;23398;50.928;7.084;2023-08-17T13:53:14;32.90;56.00
37560;DHT22;23398;50.928;7.084;2023-08-17T13:55:39;32.90;56.50
37560;DHT22;23398;50.928;7.084;2023-08-17T13:58:05;32.90;56.40
37560;DHT22;23398;50.928;7.084;2023-08-17T14:00:31;32.70;56.60
37560;DHT22;23398;50.928;7.084;2023-08-17T14:02:56;32.70;56.30
37560;DHT22;23398;50.928;7.084;2023-08-17T14:05:22;32.60;56.10
37560;DHT22;23398;50.928;7.084;2023-08-17T14:07:48;32.60;56.30
37560;DHT22;23398;50.928;7.084;2023-08-17T14:10:14;32.50;56.60
37560;DHT22;23398;50.928;7.084;2023-08-17T14:12:40;32.50;56.40
37560;DHT22;23398;50.928;7.084;2023-08-17T14:15:06;32.40;57.10
37560;DHT22;23398;50.928;7.084;2023-08-17T14:17:32;32.40;57.50
37560;DHT22;23398;50.928;7.084;2023-08-17T14:19:58;32.40;57.40
37560;DHT22;23398;50.928;7.084;2023-08-17T14:22:25;32.20;57.20
37560;DHT22;23398;50.928;7.084;2023-08-17T14:24:50;32.20;57.00
37560;DHT22;23398;50.928;7.084;2023-08-17T14:27:16;32.10;57.20
37560;DHT22;23398;50.928;7.084;2023-08-17T14:29:41;32.10;57.70
37560;DHT22;23398;50.928;7.084;2023-08-17T14:32:07;31.90;58.00
37560;DHT22;23398;50.928;7.084;2023-08-17T14:34:33;31.80;58.40
37560;DHT22;23398;50.928;7.084;2023-08-17T14:36:59;31.70;58.10
37560;DHT22;23398;50.928;7.084;2023-08-17T14:39:24;31.60;58.10
37560;DHT22;23398;50.928;7.084;2023-08-17T14:41:50;31.40;58.40
37560;DHT22;23398;50.928;7.084;2023-08-17T14:44:15;31.20;58.70
37560;DHT22;23398;50.928;7.084;2023-08-17T14:46:42;31.10;59.10
37560;DHT22;23398;50.928;7.084;2023-08-17T14:49:08;30.80;59.40
37560;DHT22;23398;50.928;7.084;2023-08-17T14:51:40;30.60;59.50
37560;DHT22;23398;50.928;7.084;2023-08-17T14:54:09;30.30;59.40
37560;DHT22;23398;50.928;7.084;2023-08-17T14:56:35;30.10;60.20
37560;DHT22;23398;50.928;7.084;2023-08-17T14:59:00;29.90;60.80
37560;DHT22;23398;50.928;7.084;2023-08-17T15:01:27;29.80;61.40
37560;DHT22;23398;50.928;7.084;2023-08-17T15:03:52;29.60;61.00
37560;DHT22;23398;50.928;7.084;2023-08-17T15:06:18;29.50;61.50
37560;DHT22;23398;50.928;7.084;2023-08-17T15:08:49;29.30;61.60
37560;DHT22;23398;50.928;7.084;2023-08-17T15:11:14;29.10;62.30
37560;DHT22;23398;50.928;7.084;2023-08-17T15:13:40;29.00;63.30
37560;DHT22;23398;50.928;7.084;2023-08-17T15:16:05;28.90;62.80
37560;DHT22;23398;50.928;7.084;2023-08-17T15:18:32;28.80;63.50
37560;DHT22;23398;50.928;7.084;2023-08-17T15:20:58;28.60;63.40
37560;DHT22;23398;50.928;7.084;2023-08-17T15:23:23;28.50;64.30
37560;DHT22;23398;50.928;7.084;2023-08-17T15:25:49;28.40;64.30
37560;DHT22;23398;50.928;7.084;2023-08-17T15:28:14;28.40;65.20
37560;DHT22;23398;50.928;7.084;2023-08-17T15:30:40;28.30;65.50
37560;DHT22;23398;50.928;7.084;2023-08-17T15:33:07;28.20;65.70
37560;DHT22;23398;50.928;7.084;2023-08-17T15:35:32;28.20;66.00
37560;DHT22;23398;50.928;7.084;2023-08-17T15:37:58;28.20;66.50
37560;DHT22;23398;50.928;7.084;2023-08-17T15:40:24;28.10;67.10
37560;DHT22;23398;50.928;7.084;2023-08-17T15:42:49;28.20;67.50